KMBL/MBL METAR and TAF weather

Enter ICAO airport designator
Station Type Date Time Source
KMBL METAR 2020/01/19 22:56 UTC NOAA

KMBL 192256Z AUTO 01005KT 9SM -SN FEW020 SCT026 M05/M08 A3032 RMK AO2 SNB12 SLP278 P0000 T10501078 FZRANO


Station Type Date Time Source
KMBL Decoded METAR 2020/01/19 22:56 UTC NOAA

Manistee, Manistee County-Blacker Airport, MI, United States (KMBL) 44-16N 086-15W
Jan 19, 2020 - 05:56 PM EST / 2020.01.19 2256 UTC
Wind: from the N (010 degrees) at 6 MPH (5 KT):0
Visibility: 9 mile(s):0
Sky conditions: partly cloudy
Weather: light snow
Precipitation last hour: A trace
Temperature: 23.0 F (-5.0 C)
Windchill: 15 F (-9 C):1
Dew Point: 18.0 F (-7.8 C)
Relative Humidity: 80%
Pressure (altimeter): 30.32 in. Hg (1026 hPa)
ob: KMBL 192256Z AUTO 01005KT 9SM -SN FEW020 SCT026 M05/M08 A3032 RMK AO2 SNB12 SLP278 P0000 T10501078 FZRANO
cycle: 23

Station Type Date Time Source
KMBL TAF 2020/01/19 18:45 UTC NOAA

TAF KMBL 191744Z 1918/2018 01010KT P6SM BKN029
FM192100 36013G22KT P6SM BKN029
FM200300 01006KT P6SM BKN029
FM201200 VRB03KT P6SM BKN026

Example: see airport list